Headland, Alabama
Current Conditions -  °F | °C
As of 10:53 AM on Saturday 22 Nov 2014 (Local Time) from KDHN Reporting Station
Overcast Overcast  
Wind Chill: 18°   Ceiling: 4200
Heat Index: 18°   Visibility: 10mi
Dew Point:   Wind: 12mph
Humidity: 56%   Direction: 80°E
Pressure: 30.34"   Gusts: NA
Location:  31.35°N, 85.34°W
Report Text: KDHN 221653Z 08010KT 10SM BKN042 BKN050 OVC065 18/09 A3034 RMK AO2 SLP270 T01830094
Loading
Personal Weather Stations






























Interactive Weather Map New forecast layout! Learn more

10-Day Weather Forecast

Advertisements
Track Severe Weather on mobile